sensor_id;sensor_type;location;lat;lon;timestamp;temperature;humidity
38456;DHT22;24237;50.106;20.014;2023-05-07T00:01:53;13.20;99.90
38456;DHT22;24237;50.106;20.014;2023-05-07T00:04:18;13.00;99.90
38456;DHT22;24237;50.106;20.014;2023-05-07T00:06:44;13.10;99.90
38456;DHT22;24237;50.106;20.014;2023-05-07T00:09:10;13.10;99.90
38456;DHT22;24237;50.106;20.014;2023-05-07T00:11:36;13.00;99.90
38456;DHT22;24237;50.106;20.014;2023-05-07T00:14:01;13.00;99.90
38456;DHT22;24237;50.106;20.014;2023-05-07T00:16:27;13.10;99.90
38456;DHT22;24237;50.106;20.014;2023-05-07T00:18:53;13.10;99.90
38456;DHT22;24237;50.106;20.014;2023-05-07T00:21:19;13.20;99.90
38456;DHT22;24237;50.106;20.014;2023-05-07T00:23:44;13.10;99.90
38456;DHT22;24237;50.106;20.014;2023-05-07T00:26:10;12.90;99.90
38456;DHT22;24237;50.106;20.014;2023-05-07T00:28:35;12.90;99.90
38456;DHT22;24237;50.106;20.014;2023-05-07T00:31:01;13.00;99.90
38456;DHT22;24237;50.106;20.014;2023-05-07T00:33:26;13.00;99.90
38456;DHT22;24237;50.106;20.014;2023-05-07T00:35:52;12.90;99.90
38456;DHT22;24237;50.106;20.014;2023-05-07T00:38:19;12.90;99.90
38456;DHT22;24237;50.106;20.014;2023-05-07T00:40:45;12.70;99.90
38456;DHT22;24237;50.106;20.014;2023-05-07T00:43:11;12.60;99.90
38456;DHT22;24237;50.106;20.014;2023-05-07T00:45:38;12.40;99.90
38456;DHT22;24237;50.106;20.014;2023-05-07T00:48:03;12.50;99.90
38456;DHT22;24237;50.106;20.014;2023-05-07T00:50:29;12.50;99.90
38456;DHT22;24237;50.106;20.014;2023-05-07T00:52:56;12.30;99.90
38456;DHT22;24237;50.106;20.014;2023-05-07T00:55:23;12.50;99.90
38456;DHT22;24237;50.106;20.014;2023-05-07T00:57:49;12.30;99.90
38456;DHT22;24237;50.106;20.014;2023-05-07T01:00:16;12.20;99.90
38456;DHT22;24237;50.106;20.014;2023-05-07T01:02:42;12.30;99.90
38456;DHT22;24237;50.106;20.014;2023-05-07T01:05:15;12.30;99.90
38456;DHT22;24237;50.106;20.014;2023-05-07T01:07:42;12.30;99.90
38456;DHT22;24237;50.106;20.014;2023-05-07T01:10:09;12.50;99.90
38456;DHT22;24237;50.106;20.014;2023-05-07T01:12:37;12.50;99.90
38456;DHT22;24237;50.106;20.014;2023-05-07T01:15:03;12.40;99.90
38456;DHT22;24237;50.106;20.014;2023-05-07T01:17:36;12.30;99.90
38456;DHT22;24237;50.106;20.014;2023-05-07T01:20:04;12.20;99.90
38456;DHT22;24237;50.106;20.014;2023-05-07T01:22:35;12.10;99.90
38456;DHT22;24237;50.106;20.014;2023-05-07T01:25:06;12.00;99.90
38456;DHT22;24237;50.106;20.014;2023-05-07T01:27:32;12.00;99.90
38456;DHT22;24237;50.106;20.014;2023-05-07T01:30:05;12.00;99.90
38456;DHT22;24237;50.106;20.014;2023-05-07T01:32:50;11.80;99.90
38456;DHT22;24237;50.106;20.014;2023-05-07T01:35:20;11.90;99.90
38456;DHT22;24237;50.106;20.014;2023-05-07T01:37:48;12.00;99.90
38456;DHT22;24237;50.106;20.014;2023-05-07T01:40:14;11.70;99.90
38456;DHT22;24237;50.106;20.014;2023-05-07T01:42:41;11.50;99.90
38456;DHT22;24237;50.106;20.014;2023-05-07T01:45:07;11.40;99.90
38456;DHT22;24237;50.106;20.014;2023-05-07T01:47:33;11.30;99.90
38456;DHT22;24237;50.106;20.014;2023-05-07T01:49:59;11.20;99.90
38456;DHT22;24237;50.106;20.014;2023-05-07T01:52:25;11.30;99.90
38456;DHT22;24237;50.106;20.014;2023-05-07T01:54:50;11.40;99.90
38456;DHT22;24237;50.106;20.014;2023-05-07T01:57:16;11.30;99.90
38456;DHT22;24237;50.106;20.014;2023-05-07T01:59:41;11.20;99.90
38456;DHT22;24237;50.106;20.014;2023-05-07T02:02:07;11.10;99.90
38456;DHT22;24237;50.106;20.014;2023-05-07T02:04:33;11.10;99.90
38456;DHT22;24237;50.106;20.014;2023-05-07T02:06:58;11.10;99.90
38456;DHT22;24237;50.106;20.014;2023-05-07T02:09:24;11.10;99.90
38456;DHT22;24237;50.106;20.014;2023-05-07T02:11:49;11.30;99.90
38456;DHT22;24237;50.106;20.014;2023-05-07T02:14:15;11.50;99.90
38456;DHT22;24237;50.106;20.014;2023-05-07T02:16:41;11.50;99.90
38456;DHT22;24237;50.106;20.014;2023-05-07T02:19:06;11.60;99.90
38456;DHT22;24237;50.106;20.014;2023-05-07T02:21:32;11.60;99.90
38456;DHT22;24237;50.106;20.014;2023-05-07T02:23:58;11.70;99.90
38456;DHT22;24237;50.106;20.014;2023-05-07T02:26:23;11.70;99.90
38456;DHT22;24237;50.106;20.014;2023-05-07T02:28:49;11.40;99.90
38456;DHT22;24237;50.106;20.014;2023-05-07T02:31:14;11.50;99.90
38456;DHT22;24237;50.106;20.014;2023-05-07T02:33:40;11.40;99.90
38456;DHT22;24237;50.106;20.014;2023-05-07T02:36:09;11.60;99.90
38456;DHT22;24237;50.106;20.014;2023-05-07T02:38:36;11.50;99.90
38456;DHT22;24237;50.106;20.014;2023-05-07T02:41:01;11.50;99.90
38456;DHT22;24237;50.106;20.014;2023-05-07T02:43:27;11.50;99.90
38456;DHT22;24237;50.106;20.014;2023-05-07T02:46:07;11.60;99.90
38456;DHT22;24237;50.106;20.014;2023-05-07T02:48:33;11.90;99.90
38456;DHT22;24237;50.106;20.014;2023-05-07T02:50:59;11.90;99.90
38456;DHT22;24237;50.106;20.014;2023-05-07T02:53:25;11.90;99.90
38456;DHT22;24237;50.106;20.014;2023-05-07T02:55:52;12.00;99.90
38456;DHT22;24237;50.106;20.014;2023-05-07T02:58:18;11.90;99.90
38456;DHT22;24237;50.106;20.014;2023-05-07T03:00:44;11.80;99.90
38456;DHT22;24237;50.106;20.014;2023-05-07T03:03:09;11.80;99.90
38456;DHT22;24237;50.106;20.014;2023-05-07T03:05:36;11.90;99.90
38456;DHT22;24237;50.106;20.014;2023-05-07T03:08:02;11.70;99.90
38456;DHT22;24237;50.106;20.014;2023-05-07T03:10:28;11.70;99.90
38456;DHT22;24237;50.106;20.014;2023-05-07T03:12:53;11.50;99.90
38456;DHT22;24237;50.106;20.014;2023-05-07T03:15:19;11.20;99.90
38456;DHT22;24237;50.106;20.014;2023-05-07T03:17:45;11.40;99.90
38456;DHT22;24237;50.106;20.014;2023-05-07T03:20:11;11.30;99.90
38456;DHT22;24237;50.106;20.014;2023-05-07T03:22:36;11.30;99.90
38456;DHT22;24237;50.106;20.014;2023-05-07T03:25:02;11.20;99.90
38456;DHT22;24237;50.106;20.014;2023-05-07T03:27:28;11.10;99.90
38456;DHT22;24237;50.106;20.014;2023-05-07T03:29:53;11.20;99.90
38456;DHT22;24237;50.106;20.014;2023-05-07T03:32:19;11.30;99.90
38456;DHT22;24237;50.106;20.014;2023-05-07T03:34:44;11.50;99.90
38456;DHT22;24237;50.106;20.014;2023-05-07T03:37:10;11.60;99.90
38456;DHT22;24237;50.106;20.014;2023-05-07T03:39:35;11.70;99.90
38456;DHT22;24237;50.106;20.014;2023-05-07T03:42:01;11.80;99.90
38456;DHT22;24237;50.106;20.014;2023-05-07T03:44:26;11.90;99.90
38456;DHT22;24237;50.106;20.014;2023-05-07T03:46:52;11.70;99.90
38456;DHT22;24237;50.106;20.014;2023-05-07T03:49:17;12.00;99.90
38456;DHT22;24237;50.106;20.014;2023-05-07T03:51:43;11.90;99.90
38456;DHT22;24237;50.106;20.014;2023-05-07T03:54:08;11.80;99.90
38456;DHT22;24237;50.106;20.014;2023-05-07T03:56:34;11.80;99.90
38456;DHT22;24237;50.106;20.014;2023-05-07T03:59:00;11.50;99.90
38456;DHT22;24237;50.106;20.014;2023-05-07T04:01:26;11.30;99.90
38456;DHT22;24237;50.106;20.014;2023-05-07T04:03:52;11.10;99.90
38456;DHT22;24237;50.106;20.014;2023-05-07T04:06:18;11.20;99.90
38456;DHT22;24237;50.106;20.014;2023-05-07T04:08:44;11.40;99.90
38456;DHT22;24237;50.106;20.014;2023-05-07T04:11:10;11.10;99.90
38456;DHT22;24237;50.106;20.014;2023-05-07T04:13:35;11.30;99.90
38456;DHT22;24237;50.106;20.014;2023-05-07T04:16:02;11.20;99.90
38456;DHT22;24237;50.106;20.014;2023-05-07T04:18:28;11.10;99.90
38456;DHT22;24237;50.106;20.014;2023-05-07T04:20:54;11.10;99.90
38456;DHT22;24237;50.106;20.014;2023-05-07T04:23:20;11.30;99.90
38456;DHT22;24237;50.106;20.014;2023-05-07T04:25:46;11.50;99.90
38456;DHT22;24237;50.106;20.014;2023-05-07T04:28:12;11.50;99.90
38456;DHT22;24237;50.106;20.014;2023-05-07T04:30:38;11.40;99.90
38456;DHT22;24237;50.106;20.014;2023-05-07T04:33:04;11.20;99.90
38456;DHT22;24237;50.106;20.014;2023-05-07T04:35:29;11.40;99.90
38456;DHT22;24237;50.106;20.014;2023-05-07T04:37:55;11.50;99.90
38456;DHT22;24237;50.106;20.014;2023-05-07T04:40:20;11.70;99.90
38456;DHT22;24237;50.106;20.014;2023-05-07T04:42:46;11.50;99.90
38456;DHT22;24237;50.106;20.014;2023-05-07T04:45:12;11.50;99.90
38456;DHT22;24237;50.106;20.014;2023-05-07T04:47:38;11.20;99.90
38456;DHT22;24237;50.106;20.014;2023-05-07T04:50:06;11.10;99.90
38456;DHT22;24237;50.106;20.014;2023-05-07T04:52:31;10.90;99.90
38456;DHT22;24237;50.106;20.014;2023-05-07T04:54:59;11.00;99.90
38456;DHT22;24237;50.106;20.014;2023-05-07T04:57:25;10.90;99.90
38456;DHT22;24237;50.106;20.014;2023-05-07T04:59:51;11.20;99.90
38456;DHT22;24237;50.106;20.014;2023-05-07T05:02:17;11.30;99.90
38456;DHT22;24237;50.106;20.014;2023-05-07T05:04:42;10.90;99.90
38456;DHT22;24237;50.106;20.014;2023-05-07T05:07:08;10.90;99.90
38456;DHT22;24237;50.106;20.014;2023-05-07T05:09:34;11.30;99.90
38456;DHT22;24237;50.106;20.014;2023-05-07T05:11:59;11.30;99.90
38456;DHT22;24237;50.106;20.014;2023-05-07T05:14:25;11.20;99.90
38456;DHT22;24237;50.106;20.014;2023-05-07T05:16:51;11.30;99.90
38456;DHT22;24237;50.106;20.014;2023-05-07T05:19:16;11.40;99.90
38456;DHT22;24237;50.106;20.014;2023-05-07T05:21:42;11.40;99.90
38456;DHT22;24237;50.106;20.014;2023-05-07T05:24:08;11.50;99.90
38456;DHT22;24237;50.106;20.014;2023-05-07T05:26:34;11.40;99.90
38456;DHT22;24237;50.106;20.014;2023-05-07T05:29:00;11.30;99.90
38456;DHT22;24237;50.106;20.014;2023-05-07T05:31:25;11.30;99.90
38456;DHT22;24237;50.106;20.014;2023-05-07T05:33:51;11.20;99.90
38456;DHT22;24237;50.106;20.014;2023-05-07T05:36:17;11.30;99.90
38456;DHT22;24237;50.106;20.014;2023-05-07T05:38:42;11.40;99.90
38456;DHT22;24237;50.106;20.014;2023-05-07T05:41:09;10.90;99.90
38456;DHT22;24237;50.106;20.014;2023-05-07T05:43:35;10.90;99.90
38456;DHT22;24237;50.106;20.014;2023-05-07T05:46:00;11.00;99.90
38456;DHT22;24237;50.106;20.014;2023-05-07T05:48:26;11.00;99.90
38456;DHT22;24237;50.106;20.014;2023-05-07T05:50:52;10.70;99.90
38456;DHT22;24237;50.106;20.014;2023-05-07T05:53:17;10.50;99.90
38456;DHT22;24237;50.106;20.014;2023-05-07T05:55:43;10.60;99.90
38456;DHT22;24237;50.106;20.014;2023-05-07T05:58:09;10.50;99.90
38456;DHT22;24237;50.106;20.014;2023-05-07T06:00:35;10.30;99.90
38456;DHT22;24237;50.106;20.014;2023-05-07T06:03:01;10.70;99.90
38456;DHT22;24237;50.106;20.014;2023-05-07T06:05:26;10.60;99.90
38456;DHT22;24237;50.106;20.014;2023-05-07T06:07:52;10.40;99.90
38456;DHT22;24237;50.106;20.014;2023-05-07T06:10:17;10.20;99.90
38456;DHT22;24237;50.106;20.014;2023-05-07T06:12:43;10.40;99.90
38456;DHT22;24237;50.106;20.014;2023-05-07T06:15:09;10.40;99.90
38456;DHT22;24237;50.106;20.014;2023-05-07T06:17:34;10.40;99.90
38456;DHT22;24237;50.106;20.014;2023-05-07T06:20:00;10.50;99.90
38456;DHT22;24237;50.106;20.014;2023-05-07T06:22:26;10.50;99.90
38456;DHT22;24237;50.106;20.014;2023-05-07T06:24:51;10.60;99.90
38456;DHT22;24237;50.106;20.014;2023-05-07T06:27:17;10.60;99.90
38456;DHT22;24237;50.106;20.014;2023-05-07T06:29:42;10.70;99.90
38456;DHT22;24237;50.106;20.014;2023-05-07T06:32:12;10.70;99.90
38456;DHT22;24237;50.106;20.014;2023-05-07T06:34:39;10.50;99.90
38456;DHT22;24237;50.106;20.014;2023-05-07T06:37:05;10.50;99.90
38456;DHT22;24237;50.106;20.014;2023-05-07T06:39:31;10.50;99.90
38456;DHT22;24237;50.106;20.014;2023-05-07T06:41:57;10.60;99.90
38456;DHT22;24237;50.106;20.014;2023-05-07T06:44:23;10.70;99.90
38456;DHT22;24237;50.106;20.014;2023-05-07T06:46:48;11.00;99.90
38456;DHT22;24237;50.106;20.014;2023-05-07T06:49:14;11.20;99.90
38456;DHT22;24237;50.106;20.014;2023-05-07T06:51:40;11.50;99.90
38456;DHT22;24237;50.106;20.014;2023-05-07T06:54:05;11.30;99.90
38456;DHT22;24237;50.106;20.014;2023-05-07T06:56:32;10.90;99.90
38456;DHT22;24237;50.106;20.014;2023-05-07T06:58:59;10.60;99.90
38456;DHT22;24237;50.106;20.014;2023-05-07T07:01:24;10.10;99.90
38456;DHT22;24237;50.106;20.014;2023-05-07T07:03:50;10.10;99.90
38456;DHT22;24237;50.106;20.014;2023-05-07T07:06:16;10.10;99.90
38456;DHT22;24237;50.106;20.014;2023-05-07T07:08:42;10.00;99.90
38456;DHT22;24237;50.106;20.014;2023-05-07T07:11:08;10.10;99.90
38456;DHT22;24237;50.106;20.014;2023-05-07T07:13:34;10.20;99.90
38456;DHT22;24237;50.106;20.014;2023-05-07T07:15:59;10.20;99.90
38456;DHT22;24237;50.106;20.014;2023-05-07T07:18:25;10.50;99.90
38456;DHT22;24237;50.106;20.014;2023-05-07T07:20:51;10.60;99.90
38456;DHT22;24237;50.106;20.014;2023-05-07T07:23:16;10.60;99.90
38456;DHT22;24237;50.106;20.014;2023-05-07T07:25:42;10.70;99.90
38456;DHT22;24237;50.106;20.014;2023-05-07T07:28:08;10.90;99.90
38456;DHT22;24237;50.106;20.014;2023-05-07T07:30:33;11.00;99.90
38456;DHT22;24237;50.106;20.014;2023-05-07T07:32:59;10.80;99.90
38456;DHT22;24237;50.106;20.014;2023-05-07T07:35:34;11.20;99.90
38456;DHT22;24237;50.106;20.014;2023-05-07T07:38:00;11.00;99.90
38456;DHT22;24237;50.106;20.014;2023-05-07T07:40:27;10.60;99.90
38456;DHT22;24237;50.106;20.014;2023-05-07T07:42:53;10.50;99.90
38456;DHT22;24237;50.106;20.014;2023-05-07T07:45:18;10.40;99.90
38456;DHT22;24237;50.106;20.014;2023-05-07T07:47:44;10.50;99.90
38456;DHT22;24237;50.106;20.014;2023-05-07T07:50:10;10.60;99.90
38456;DHT22;24237;50.106;20.014;2023-05-07T07:52:36;10.90;99.90
38456;DHT22;24237;50.106;20.014;2023-05-07T07:55:02;10.90;99.90
38456;DHT22;24237;50.106;20.014;2023-05-07T07:57:27;10.60;99.90
38456;DHT22;24237;50.106;20.014;2023-05-07T07:59:53;10.70;99.90
38456;DHT22;24237;50.106;20.014;2023-05-07T08:02:19;10.50;99.90
38456;DHT22;24237;50.106;20.014;2023-05-07T08:04:44;10.30;99.90
38456;DHT22;24237;50.106;20.014;2023-05-07T08:07:10;10.30;99.90
38456;DHT22;24237;50.106;20.014;2023-05-07T08:09:39;10.40;99.90
38456;DHT22;24237;50.106;20.014;2023-05-07T08:12:06;10.40;99.90
38456;DHT22;24237;50.106;20.014;2023-05-07T08:14:32;10.70;99.90
38456;DHT22;24237;50.106;20.014;2023-05-07T08:16:58;10.70;99.90
38456;DHT22;24237;50.106;20.014;2023-05-07T08:19:23;10.40;99.90
38456;DHT22;24237;50.106;20.014;2023-05-07T08:21:49;10.30;99.90
38456;DHT22;24237;50.106;20.014;2023-05-07T08:24:16;10.40;99.90
38456;DHT22;24237;50.106;20.014;2023-05-07T08:26:41;10.20;99.90
38456;DHT22;24237;50.106;20.014;2023-05-07T08:29:07;10.20;99.90
38456;DHT22;24237;50.106;20.014;2023-05-07T08:31:33;10.60;99.90
38456;DHT22;24237;50.106;20.014;2023-05-07T08:33:59;10.50;99.90
38456;DHT22;24237;50.106;20.014;2023-05-07T08:36:25;10.50;99.90
38456;DHT22;24237;50.106;20.014;2023-05-07T08:38:51;10.50;99.90
38456;DHT22;24237;50.106;20.014;2023-05-07T08:41:17;10.30;99.90
38456;DHT22;24237;50.106;20.014;2023-05-07T08:43:47;10.30;99.90
38456;DHT22;24237;50.106;20.014;2023-05-07T08:46:17;10.20;99.90
38456;DHT22;24237;50.106;20.014;2023-05-07T08:48:43;10.40;99.90
38456;DHT22;24237;50.106;20.014;2023-05-07T08:51:12;10.70;99.90
38456;DHT22;24237;50.106;20.014;2023-05-07T08:53:40;10.50;99.90
38456;DHT22;24237;50.106;20.014;2023-05-07T08:56:06;10.50;99.90
38456;DHT22;24237;50.106;20.014;2023-05-07T08:58:32;10.80;99.90
38456;DHT22;24237;50.106;20.014;2023-05-07T09:00:59;11.20;99.90
38456;DHT22;24237;50.106;20.014;2023-05-07T09:03:25;11.20;99.90
38456;DHT22;24237;50.106;20.014;2023-05-07T09:05:50;10.80;99.90
38456;DHT22;24237;50.106;20.014;2023-05-07T09:08:16;10.70;99.90
38456;DHT22;24237;50.106;20.014;2023-05-07T09:10:41;10.40;99.90
38456;DHT22;24237;50.106;20.014;2023-05-07T09:13:07;10.50;99.90
38456;DHT22;24237;50.106;20.014;2023-05-07T09:15:33;10.70;99.90
38456;DHT22;24237;50.106;20.014;2023-05-07T09:18:00;10.70;99.90
38456;DHT22;24237;50.106;20.014;2023-05-07T09:20:26;10.80;99.90
38456;DHT22;24237;50.106;20.014;2023-05-07T09:22:52;10.80;99.90
38456;DHT22;24237;50.106;20.014;2023-05-07T09:25:31;10.80;99.90
38456;DHT22;24237;50.106;20.014;2023-05-07T09:27:59;10.90;99.90
38456;DHT22;24237;50.106;20.014;2023-05-07T09:30:29;10.70;99.90
38456;DHT22;24237;50.106;20.014;2023-05-07T09:32:56;10.80;99.90
38456;DHT22;24237;50.106;20.014;2023-05-07T09:35:22;10.80;99.90
38456;DHT22;24237;50.106;20.014;2023-05-07T09:37:50;10.90;99.90
38456;DHT22;24237;50.106;20.014;2023-05-07T09:40:23;10.90;99.90
38456;DHT22;24237;50.106;20.014;2023-05-07T09:42:49;10.70;99.90
38456;DHT22;24237;50.106;20.014;2023-05-07T09:45:16;10.60;99.90
38456;DHT22;24237;50.106;20.014;2023-05-07T09:47:43;10.70;99.90
38456;DHT22;24237;50.106;20.014;2023-05-07T09:50:12;10.60;99.90
38456;DHT22;24237;50.106;20.014;2023-05-07T09:52:41;10.80;99.90
38456;DHT22;24237;50.106;20.014;2023-05-07T09:55:07;11.00;99.90
38456;DHT22;24237;50.106;20.014;2023-05-07T09:57:34;10.80;99.90
38456;DHT22;24237;50.106;20.014;2023-05-07T10:00:02;10.50;99.90
38456;DHT22;24237;50.106;20.014;2023-05-07T10:02:30;10.70;99.90
38456;DHT22;24237;50.106;20.014;2023-05-07T10:04:57;10.50;99.90
38456;DHT22;24237;50.106;20.014;2023-05-07T10:07:25;10.50;99.90
38456;DHT22;24237;50.106;20.014;2023-05-07T10:09:52;10.60;99.90
38456;DHT22;24237;50.106;20.014;2023-05-07T10:12:18;10.80;99.90
38456;DHT22;24237;50.106;20.014;2023-05-07T10:14:46;10.70;99.90
38456;DHT22;24237;50.106;20.014;2023-05-07T10:17:13;10.80;99.90
38456;DHT22;24237;50.106;20.014;2023-05-07T10:19:43;10.90;99.90
38456;DHT22;24237;50.106;20.014;2023-05-07T10:22:09;10.70;99.90
38456;DHT22;24237;50.106;20.014;2023-05-07T10:24:36;10.60;99.90
38456;DHT22;24237;50.106;20.014;2023-05-07T10:27:07;10.70;99.90
38456;DHT22;24237;50.106;20.014;2023-05-07T10:30:00;10.70;99.90
38456;DHT22;24237;50.106;20.014;2023-05-07T10:32:50;10.70;99.90
38456;DHT22;24237;50.106;20.014;2023-05-07T10:35:21;11.00;99.90
38456;DHT22;24237;50.106;20.014;2023-05-07T10:37:48;11.00;99.90
38456;DHT22;24237;50.106;20.014;2023-05-07T10:40:14;11.00;99.90
38456;DHT22;24237;50.106;20.014;2023-05-07T10:42:56;10.80;99.90
38456;DHT22;24237;50.106;20.014;2023-05-07T10:45:23;10.30;99.90
38456;DHT22;24237;50.106;20.014;2023-05-07T10:48:13;9.80;99.90
38456;DHT22;24237;50.106;20.014;2023-05-07T10:50:41;9.70;99.90
38456;DHT22;24237;50.106;20.014;2023-05-07T10:55:47;10.60;99.90
38456;DHT22;24237;50.106;20.014;2023-05-07T11:01:00;10.80;99.90
38456;DHT22;24237;50.106;20.014;2023-05-07T11:03:26;10.80;99.90
38456;DHT22;24237;50.106;20.014;2023-05-07T11:06:11;10.90;99.90
38456;DHT22;24237;50.106;20.014;2023-05-07T11:08:54;10.70;99.90
38456;DHT22;24237;50.106;20.014;2023-05-07T11:11:46;10.80;99.90
38456;DHT22;24237;50.106;20.014;2023-05-07T11:14:14;10.80;99.90
38456;DHT22;24237;50.106;20.014;2023-05-07T11:16:41;11.20;99.90
38456;DHT22;24237;50.106;20.014;2023-05-07T11:19:08;11.30;99.90
38456;DHT22;24237;50.106;20.014;2023-05-07T11:21:40;11.20;99.90
38456;DHT22;24237;50.106;20.014;2023-05-07T11:24:07;11.30;99.90
38456;DHT22;24237;50.106;20.014;2023-05-07T11:26:53;11.40;99.90
38456;DHT22;24237;50.106;20.014;2023-05-07T11:29:20;11.20;99.90
38456;DHT22;24237;50.106;20.014;2023-05-07T11:31:51;11.30;99.90
38456;DHT22;24237;50.106;20.014;2023-05-07T11:34:24;11.50;99.90
38456;DHT22;24237;50.106;20.014;2023-05-07T11:36:50;11.80;99.90
38456;DHT22;24237;50.106;20.014;2023-05-07T11:39:43;11.80;99.90
38456;DHT22;24237;50.106;20.014;2023-05-07T11:42:28;11.30;99.90
38456;DHT22;24237;50.106;20.014;2023-05-07T11:44:54;11.00;99.90
38456;DHT22;24237;50.106;20.014;2023-05-07T11:47:20;11.10;99.90
38456;DHT22;24237;50.106;20.014;2023-05-07T11:49:50;10.70;99.90
38456;DHT22;24237;50.106;20.014;2023-05-07T11:52:17;10.70;99.90
38456;DHT22;24237;50.106;20.014;2023-05-07T11:57:15;10.20;99.90
38456;DHT22;24237;50.106;20.014;2023-05-07T11:59:41;10.30;99.90
38456;DHT22;24237;50.106;20.014;2023-05-07T12:02:07;10.50;99.90
38456;DHT22;24237;50.106;20.014;2023-05-07T12:04:33;10.70;99.90
38456;DHT22;24237;50.106;20.014;2023-05-07T12:06:59;10.60;99.90
38456;DHT22;24237;50.106;20.014;2023-05-07T12:09:25;10.50;99.90
38456;DHT22;24237;50.106;20.014;2023-05-07T12:11:52;10.50;99.90
38456;DHT22;24237;50.106;20.014;2023-05-07T12:14:18;10.60;99.90
38456;DHT22;24237;50.106;20.014;2023-05-07T12:16:44;11.10;99.90
38456;DHT22;24237;50.106;20.014;2023-05-07T12:19:11;11.20;99.90
38456;DHT22;24237;50.106;20.014;2023-05-07T12:21:38;11.30;99.90
38456;DHT22;24237;50.106;20.014;2023-05-07T12:24:05;11.10;99.90
38456;DHT22;24237;50.106;20.014;2023-05-07T12:26:30;10.80;99.90
38456;DHT22;24237;50.106;20.014;2023-05-07T12:28:57;10.80;99.90
38456;DHT22;24237;50.106;20.014;2023-05-07T12:31:25;10.80;99.90
38456;DHT22;24237;50.106;20.014;2023-05-07T12:33:51;10.60;99.90
38456;DHT22;24237;50.106;20.014;2023-05-07T12:36:17;10.40;99.90
38456;DHT22;24237;50.106;20.014;2023-05-07T12:38:42;9.90;99.90
38456;DHT22;24237;50.106;20.014;2023-05-07T12:41:09;10.00;99.90
38456;DHT22;24237;50.106;20.014;2023-05-07T12:43:36;10.50;99.90
38456;DHT22;24237;50.106;20.014;2023-05-07T12:46:05;10.80;99.90
38456;DHT22;24237;50.106;20.014;2023-05-07T12:48:31;11.00;99.90
38456;DHT22;24237;50.106;20.014;2023-05-07T12:50:58;10.90;99.90
38456;DHT22;24237;50.106;20.014;2023-05-07T12:53:25;11.10;99.90
38456;DHT22;24237;50.106;20.014;2023-05-07T12:55:54;10.90;99.90
38456;DHT22;24237;50.106;20.014;2023-05-07T12:58:26;10.80;99.90
38456;DHT22;24237;50.106;20.014;2023-05-07T13:00:53;10.70;99.90
38456;DHT22;24237;50.106;20.014;2023-05-07T13:03:27;10.50;99.90
38456;DHT22;24237;50.106;20.014;2023-05-07T13:05:55;10.40;99.90
38456;DHT22;24237;50.106;20.014;2023-05-07T13:08:26;10.60;99.90
38456;DHT22;24237;50.106;20.014;2023-05-07T13:10:52;10.50;99.90
38456;DHT22;24237;50.106;20.014;2023-05-07T13:13:18;10.80;99.90
38456;DHT22;24237;50.106;20.014;2023-05-07T13:15:44;10.90;99.90
38456;DHT22;24237;50.106;20.014;2023-05-07T13:18:10;10.90;99.90
38456;DHT22;24237;50.106;20.014;2023-05-07T13:20:36;11.10;99.90
38456;DHT22;24237;50.106;20.014;2023-05-07T13:23:02;11.20;99.90
38456;DHT22;24237;50.106;20.014;2023-05-07T13:25:29;11.00;99.90
38456;DHT22;24237;50.106;20.014;2023-05-07T13:27:56;10.90;99.90
38456;DHT22;24237;50.106;20.014;2023-05-07T13:30:22;10.80;99.90
38456;DHT22;24237;50.106;20.014;2023-05-07T13:32:48;11.20;99.90
38456;DHT22;24237;50.106;20.014;2023-05-07T13:35:14;10.70;99.90
38456;DHT22;24237;50.106;20.014;2023-05-07T13:37:40;10.70;99.90
38456;DHT22;24237;50.106;20.014;2023-05-07T13:40:06;10.70;99.90
38456;DHT22;24237;50.106;20.014;2023-05-07T13:42:31;10.60;99.90
38456;DHT22;24237;50.106;20.014;2023-05-07T13:44:57;10.00;99.90
38456;DHT22;24237;50.106;20.014;2023-05-07T13:47:26;9.80;99.90
38456;DHT22;24237;50.106;20.014;2023-05-07T13:49:51;9.90;99.90
38456;DHT22;24237;50.106;20.014;2023-05-07T13:52:17;9.80;99.90
38456;DHT22;24237;50.106;20.014;2023-05-07T13:54:43;9.90;99.90
38456;DHT22;24237;50.106;20.014;2023-05-07T13:57:08;10.20;99.90
38456;DHT22;24237;50.106;20.014;2023-05-07T13:59:34;10.40;99.90
38456;DHT22;24237;50.106;20.014;2023-05-07T14:02:00;10.50;99.90
38456;DHT22;24237;50.106;20.014;2023-05-07T14:04:25;10.90;99.90
38456;DHT22;24237;50.106;20.014;2023-05-07T14:06:51;10.80;99.90
38456;DHT22;24237;50.106;20.014;2023-05-07T14:09:16;10.30;99.90
38456;DHT22;24237;50.106;20.014;2023-05-07T14:11:42;10.10;99.90
38456;DHT22;24237;50.106;20.014;2023-05-07T14:14:08;9.90;99.90
38456;DHT22;24237;50.106;20.014;2023-05-07T14:16:36;9.80;99.90
38456;DHT22;24237;50.106;20.014;2023-05-07T14:19:02;10.30;99.90
38456;DHT22;24237;50.106;20.014;2023-05-07T14:21:28;10.70;99.90
38456;DHT22;24237;50.106;20.014;2023-05-07T14:23:53;10.80;99.90
38456;DHT22;24237;50.106;20.014;2023-05-07T14:26:19;10.50;99.90
38456;DHT22;24237;50.106;20.014;2023-05-07T14:28:46;10.50;99.90
38456;DHT22;24237;50.106;20.014;2023-05-07T14:31:12;10.70;99.90
38456;DHT22;24237;50.106;20.014;2023-05-07T14:33:38;10.80;99.90
38456;DHT22;24237;50.106;20.014;2023-05-07T14:36:03;10.60;99.90
38456;DHT22;24237;50.106;20.014;2023-05-07T14:38:30;10.70;99.90
38456;DHT22;24237;50.106;20.014;2023-05-07T14:40:58;10.40;99.90
38456;DHT22;24237;50.106;20.014;2023-05-07T14:43:23;10.70;99.90
38456;DHT22;24237;50.106;20.014;2023-05-07T14:45:49;11.00;99.90
38456;DHT22;24237;50.106;20.014;2023-05-07T14:48:15;10.60;99.90
38456;DHT22;24237;50.106;20.014;2023-05-07T14:50:46;10.10;99.90
38456;DHT22;24237;50.106;20.014;2023-05-07T14:53:11;9.80;99.90
38456;DHT22;24237;50.106;20.014;2023-05-07T14:55:37;9.90;99.90
38456;DHT22;24237;50.106;20.014;2023-05-07T14:58:04;9.90;99.90
38456;DHT22;24237;50.106;20.014;2023-05-07T15:00:29;9.80;99.90
38456;DHT22;24237;50.106;20.014;2023-05-07T15:03:04;9.80;99.90
38456;DHT22;24237;50.106;20.014;2023-05-07T15:05:30;9.70;99.90
38456;DHT22;24237;50.106;20.014;2023-05-07T15:07:55;9.60;99.90
38456;DHT22;24237;50.106;20.014;2023-05-07T15:10:21;9.70;99.90
38456;DHT22;24237;50.106;20.014;2023-05-07T15:12:47;9.90;99.90
38456;DHT22;24237;50.106;20.014;2023-05-07T15:15:12;9.60;99.90
38456;DHT22;24237;50.106;20.014;2023-05-07T15:17:38;9.70;99.90
38456;DHT22;24237;50.106;20.014;2023-05-07T15:20:04;9.50;99.90
38456;DHT22;24237;50.106;20.014;2023-05-07T15:22:30;9.60;99.90
38456;DHT22;24237;50.106;20.014;2023-05-07T15:24:55;9.30;99.90